Time;durP1;ratioP1;P1;durP2;ratioP2;P2;SDS_P1;SDS_P2;PMS_P1;PMS_P2;Temp;Humidity;BMP_temperature;BMP_pressure;BME280_temperature;BME280_humidity;BME280_pressure;Samples;Min_cycle;Max_cycle;Signal;HPM_P1;HPM_P2
2022/12/19 00:01:36;;;;;;;14.38;5.07;;;8.20;60.40;;;;;;6245267;28;20030;-77
2022/12/19 00:04:36;;;;;;;12.25;4.88;;;8.10;60.40;;;;;;6246153;28;20113;-77
2022/12/19 00:07:37;;;;;;;12.77;5.53;;;8.10;60.50;;;;;;6246867;28;20041;-77
2022/12/19 00:10:38;;;;;;;12.63;5.95;;;8.10;60.60;;;;;;6245712;28;20040;-77
2022/12/19 00:13:39;;;;;;;12.85;5.30;;;8.10;60.60;;;;;;6228806;28;20371;-77
2022/12/19 00:16:40;;;;;;;14.05;6.15;;;8.10;60.60;;;;;;6245911;28;20497;-76
2022/12/19 00:19:42;;;;;;;13.63;6.18;;;8.10;60.60;;;;;;6245181;28;20038;-76
2022/12/19 00:22:43;;;;;;;13.02;5.10;;;8.10;60.70;;;;;;6244483;28;20057;-77
2022/12/19 00:25:44;;;;;;;24.88;6.18;;;8.10;60.70;;;;;;6243090;28;20593;-77
2022/12/19 00:28:47;;;;;;;12.35;5.53;;;8.10;60.70;;;;;;6243981;28;20040;-77
2022/12/19 00:31:48;;;;;;;12.27;5.15;;;8.10;60.70;;;;;;6244777;28;20029;-77
2022/12/19 00:34:49;;;;;;;15.65;5.40;;;8.00;60.80;;;;;;6244270;28;20044;-77
2022/12/19 00:37:50;;;;;;;12.82;5.13;;;8.00;60.80;;;;;;6231585;28;20045;-76
2022/12/19 00:40:50;;;;;;;10.68;4.32;;;8.00;60.90;;;;;;6245618;28;20030;-77
2022/12/19 00:43:53;;;;;;;10.05;4.15;;;8.00;61.00;;;;;;6247968;28;20033;-76
2022/12/19 00:46:54;;;;;;;15.15;5.57;;;8.00;61.00;;;;;;6267726;28;20033;-76
2022/12/19 00:49:54;;;;;;;14.90;5.53;;;8.00;61.00;;;;;;6230704;28;20490;-77
2022/12/19 00:52:55;;;;;;;14.02;5.43;;;8.00;61.00;;;;;;6223471;28;20042;-76
2022/12/19 00:56:00;;;;;;;15.93;5.43;;;7.90;60.90;;;;;;6230346;28;20065;-76
2022/12/19 00:59:01;;;;;;;13.32;5.15;;;8.00;61.00;;;;;;6244626;28;20026;-76
2022/12/19 01:02:02;;;;;;;11.98;5.03;;;7.90;60.90;;;;;;6234411;28;20037;-77
2022/12/19 01:05:04;;;;;;;11.40;5.55;;;7.90;61.10;;;;;;6225656;28;20030;-77
2022/12/19 01:08:05;;;;;;;8.85;4.60;;;7.90;61.00;;;;;;6244577;28;20049;-78
2022/12/19 01:11:07;;;;;;;13.35;5.00;;;7.90;60.90;;;;;;6241690;28;20030;-76
2022/12/19 01:14:11;;;;;;;14.57;4.45;;;7.90;60.80;;;;;;6232553;28;20037;-77
2022/12/19 01:17:14;;;;;;;11.98;4.18;;;7.90;60.80;;;;;;6265032;28;20037;-78
2022/12/19 01:20:20;;;;;;;10.50;4.47;;;7.90;60.70;;;;;;6263227;28;20073;-77
2022/12/19 01:23:21;;;;;;;7.53;3.67;;;7.90;60.70;;;;;;6230534;28;20053;-76
2022/12/19 01:26:22;;;;;;;15.93;5.40;;;7.90;60.70;;;;;;6238869;28;20038;-78
2022/12/19 01:29:23;;;;;;;8.98;4.05;;;7.90;60.60;;;;;;6205950;28;20109;-77
2022/12/19 01:32:24;;;;;;;7.00;3.80;;;7.90;60.70;;;;;;6224867;28;20044;-77
2022/12/19 01:35:26;;;;;;;8.70;4.93;;;8.00;60.70;;;;;;6248645;28;20052;-77
2022/12/19 01:38:27;;;;;;;13.32;5.20;;;8.00;60.50;;;;;;6248803;28;20045;-78
2022/12/19 01:41:28;;;;;;;9.48;4.40;;;8.00;60.30;;;;;;6240089;28;20053;-77
2022/12/19 01:44:30;;;;;;;11.75;4.68;;;8.00;61.10;;;;;;6265195;28;20072;-77
2022/12/19 01:47:42;;;;;;;14.40;5.75;;;8.00;60.30;;;;;;6248521;28;20042;-77
2022/12/19 01:50:48;;;;;;;9.82;4.38;;;8.00;60.50;;;;;;6222297;28;20052;-77
2022/12/19 01:53:55;;;;;;;9.45;4.03;;;8.00;60.60;;;;;;6256552;28;20037;-77
2022/12/19 01:56:58;;;;;;;13.90;4.97;;;8.00;60.60;;;;;;6225429;28;20474;-77
2022/12/19 02:00:00;;;;;;;12.40;4.93;;;8.00;60.60;;;;;;6226348;28;20364;-77
2022/12/19 02:03:23;;;;;;;9.50;4.20;;;8.00;60.60;;;;;;6276183;28;20477;-77
2022/12/19 02:06:25;;;;;;;12.18;4.32;;;8.10;60.60;;;;;;6262858;28;20039;-77
2022/12/19 02:09:27;;;;;;;11.55;4.05;;;8.10;60.30;;;;;;6262656;28;20033;-77
2022/12/19 02:12:32;;;;;;;12.43;4.53;;;8.10;60.20;;;;;;6245777;28;20057;-76
2022/12/19 02:15:51;;;;;;;10.68;4.57;;;8.10;60.20;;;;;;6259427;28;20045;-77
2022/12/19 02:19:23;;;;;;;12.23;5.05;;;8.10;60.20;;;;;;6242626;28;20037;-78
2022/12/19 02:22:50;;;;;;;12.10;4.47;;;8.00;59.90;;;;;;6254636;28;20479;-77
2022/12/19 02:26:03;;;;;;;7.95;3.58;;;8.20;60.00;;;;;;6231708;28;20042;-77
2022/12/19 02:29:22;;;;;;;11.10;4.20;;;8.20;59.80;;;;;;6216201;28;20473;-78
2022/12/19 02:32:40;;;;;;;18.02;4.30;;;8.30;59.80;;;;;;6218041;28;20033;-77
2022/12/19 02:35:51;;;;;;;14.43;4.18;;;8.30;59.70;;;;;;6242517;28;20068;-78
2022/12/19 02:39:07;;;;;;;7.47;2.95;;;8.30;59.60;;;;;;6244626;28;20412;-77
2022/12/19 02:42:11;;;;;;;6.43;3.53;;;8.30;59.50;;;;;;6210378;28;20122;-77
2022/12/19 02:45:16;;;;;;;8.10;3.67;;;8.40;59.50;;;;;;6259512;28;20428;-77
2022/12/19 02:48:18;;;;;;;12.60;4.40;;;8.40;59.50;;;;;;6242740;28;20045;-77
2022/12/19 02:51:19;;;;;;;10.90;4.40;;;8.40;59.60;;;;;;6256325;28;20033;-76
2022/12/19 02:54:21;;;;;;;6.82;3.65;;;8.40;59.40;;;;;;6216003;28;20177;-76
2022/12/19 02:57:32;;;;;;;11.45;4.05;;;8.40;59.30;;;;;;6218649;28;20520;-77
2022/12/19 03:00:45;;;;;;;6.53;3.85;;;8.40;59.30;;;;;;6227775;28;20041;-77
2022/12/19 03:03:54;;;;;;;7.68;3.38;;;8.40;59.20;;;;;;6242614;28;20112;-77
2022/12/19 03:07:19;;;;;;;11.32;4.80;;;8.40;59.10;;;;;;6227137;28;20123;-78
2022/12/19 03:10:21;;;;;;;8.68;3.75;;;8.30;58.90;;;;;;6216284;28;20037;-76
2022/12/19 03:13:29;;;;;;;10.30;4.55;;;8.30;59.00;;;;;;6214989;28;20065;-76
2022/12/19 03:16:34;;;;;;;9.38;4.63;;;8.30;59.10;;;;;;6227670;28;20041;-76
2022/12/19 03:19:37;;;;;;;10.88;4.05;;;8.30;59.10;;;;;;6239409;28;20051;-78
2022/12/19 03:22:38;;;;;;;9.50;4.57;;;8.30;59.10;;;;;;6240464;28;20044;-77
2022/12/19 03:25:41;;;;;;;15.60;4.30;;;8.40;59.20;;;;;;6241062;28;20378;-77
2022/12/19 03:28:51;;;;;;;13.50;4.75;;;8.40;59.10;;;;;;6241969;28;20052;-76
2022/12/19 03:31:52;;;;;;;9.38;3.65;;;8.40;58.90;;;;;;6237939;28;20395;-77
2022/12/19 03:35:09;;;;;;;8.57;4.20;;;8.40;58.80;;;;;;6241721;28;20474;-78
2022/12/19 03:38:11;;;;;;;8.30;3.67;;;8.30;58.80;;;;;;6240641;28;20041;-76
2022/12/19 03:41:14;;;;;;;11.07;5.00;;;8.30;58.90;;;;;;6242365;28;20075;-76
2022/12/19 03:44:18;;;;;;;12.57;4.35;;;8.30;59.00;;;;;;6240685;28;20056;-77
2022/12/19 03:47:50;;;;;;;11.10;3.70;;;8.30;58.90;;;;;;6242385;28;20038;-77
2022/12/19 03:51:12;;;;;;;6.55;3.13;;;8.30;58.90;;;;;;6189586;28;20038;-77
2022/12/19 03:54:47;;;;;;;13.07;4.75;;;8.30;58.90;;;;;;6170741;28;20043;-77
2022/12/19 03:57:57;;;;;;;7.93;3.97;;;8.20;58.80;;;;;;6071214;29;20060;-76
2022/12/19 04:00:59;;;;;;;8.10;4.45;;;8.20;58.70;;;;;;6064667;29;20148;-76
2022/12/19 04:04:02;;;;;;;10.48;4.88;;;8.20;58.80;;;;;;6079695;29;20060;-77
2022/12/19 04:07:05;;;;;;;9.35;4.45;;;8.20;58.70;;;;;;6085506;29;20048;-78
2022/12/19 04:10:10;;;;;;;15.25;3.92;;;8.20;58.80;;;;;;6070343;29;20116;-77
2022/12/19 04:13:18;;;;;;;13.93;4.78;;;8.20;58.80;;;;;;6070287;29;20080;-78
2022/12/19 04:16:23;;;;;;;6.00;3.28;;;8.20;58.40;;;;;;6070798;29;20066;-76
2022/12/19 04:19:42;;;;;;;7.32;3.22;;;8.20;58.40;;;;;;6085991;29;20044;-76
2022/12/19 04:22:58;;;;;;;7.45;3.22;;;8.20;58.30;;;;;;6072825;29;20037;-77
2022/12/19 04:26:03;;;;;;;8.15;3.67;;;8.20;58.20;;;;;;6075727;29;20119;-76
2022/12/19 04:29:06;;;;;;;8.93;2.83;;;8.20;58.20;;;;;;6109642;28;20046;-78
2022/12/19 04:32:08;;;;;;;6.07;2.97;;;8.30;58.20;;;;;;6110340;28;20038;-76
2022/12/19 04:35:09;;;;;;;8.60;3.30;;;8.30;58.20;;;;;;6241686;28;20056;-76
2022/12/19 04:38:10;;;;;;;7.88;3.13;;;8.40;58.10;;;;;;6247515;28;20124;-76
2022/12/19 04:41:11;;;;;;;6.70;3.22;;;8.50;58.00;;;;;;6244930;28;20028;-76
2022/12/19 04:44:12;;;;;;;8.90;3.80;;;8.50;57.90;;;;;;6254630;28;20029;-76
2022/12/19 04:47:13;;;;;;;5.53;3.28;;;8.60;57.80;;;;;;6230573;28;20053;-76
2022/12/19 04:50:14;;;;;;;8.30;3.55;;;8.60;57.80;;;;;;6245611;28;20470;-77
2022/12/19 04:53:15;;;;;;;6.90;3.47;;;8.60;57.60;;;;;;6263179;28;20038;-78
2022/12/19 04:56:16;;;;;;;8.65;3.92;;;8.60;57.50;;;;;;6247891;28;20534;-77
2022/12/19 04:59:18;;;;;;;12.27;3.53;;;8.60;57.60;;;;;;6260057;28;20430;-77
2022/12/19 05:02:18;;;;;;;10.32;3.88;;;8.60;57.40;;;;;;6244760;28;20048;-77
2022/12/19 05:05:19;;;;;;;7.13;3.40;;;8.60;57.40;;;;;;6244361;28;20122;-77
2022/12/19 05:08:20;;;;;;;7.15;2.95;;;8.60;57.60;;;;;;6243044;28;20099;-76
2022/12/19 05:11:21;;;;;;;9.02;3.22;;;8.50;57.50;;;;;;6244528;28;20044;-76
2022/12/19 05:14:22;;;;;;;6.43;3.28;;;8.50;57.60;;;;;;6244205;28;20037;-76
2022/12/19 05:17:23;;;;;;;7.53;3.28;;;8.50;57.50;;;;;;6245734;28;20124;-76
2022/12/19 05:20:23;;;;;;;10.25;4.18;;;8.50;57.70;;;;;;6250906;28;20375;-76
2022/12/19 05:23:24;;;;;;;8.15;2.53;;;8.40;57.60;;;;;;6233905;28;20092;-76
2022/12/19 05:26:25;;;;;;;4.93;3.00;;;8.50;57.60;;;;;;6246508;28;20063;-76
2022/12/19 05:29:26;;;;;;;7.72;3.65;;;8.50;57.60;;;;;;6246101;28;20359;-77
2022/12/19 05:32:31;;;;;;;7.00;3.30;;;8.40;57.60;;;;;;6237410;28;20127;-77
2022/12/19 05:35:33;;;;;;;6.97;3.47;;;8.40;57.60;;;;;;6245075;28;20032;-76
2022/12/19 05:38:34;;;;;;;9.85;4.22;;;8.40;57.60;;;;;;6246547;28;20044;-77
2022/12/19 05:41:35;;;;;;;8.07;3.33;;;8.40;57.70;;;;;;6246143;28;20112;-76
2022/12/19 05:44:36;;;;;;;16.58;3.45;;;8.40;57.80;;;;;;6247369;28;20425;-77
2022/12/19 05:47:37;;;;;;;10.15;4.25;;;8.30;57.70;;;;;;6227305;28;20045;-77
2022/12/19 05:50:38;;;;;;;5.20;3.33;;;8.30;57.80;;;;;;6237770;28;20033;-77
2022/12/19 05:53:48;;;;;;;11.15;3.78;;;8.30;57.80;;;;;;6245329;28;20072;-76
2022/12/19 05:56:48;;;;;;;8.90;3.10;;;8.30;58.00;;;;;;6262228;28;20045;-77
2022/12/19 05:59:49;;;;;;;16.05;3.78;;;8.30;58.00;;;;;;6246461;28;20037;-77
2022/12/19 06:02:50;;;;;;;13.30;5.25;;;8.30;57.80;;;;;;6246996;28;20080;-77
2022/12/19 06:05:51;;;;;;;4.10;2.63;;;8.30;57.70;;;;;;6260654;28;20050;-77
2022/12/19 06:08:57;;;;;;;8.43;3.45;;;8.40;57.80;;;;;;6260960;28;20073;-77
2022/12/19 06:11:58;;;;;;;6.53;2.97;;;8.40;57.60;;;;;;6260905;28;20068;-76
2022/12/19 06:14:58;;;;;;;6.47;2.83;;;8.40;57.50;;;;;;6246017;28;20532;-78
2022/12/19 06:17:59;;;;;;;10.00;2.85;;;8.40;57.40;;;;;;6262454;28;20030;-77
2022/12/19 06:21:03;;;;;;;7.88;3.65;;;8.40;57.20;;;;;;6247206;28;20481;-77
2022/12/19 06:24:04;;;;;;;7.72;2.97;;;8.50;57.30;;;;;;6228098;28;20057;-77
2022/12/19 06:27:05;;;;;;;5.03;3.15;;;8.50;57.20;;;;;;6228683;28;20497;-77
2022/12/19 06:30:06;;;;;;;10.43;2.80;;;8.50;57.00;;;;;;6246333;28;20037;-77
2022/12/19 06:33:07;;;;;;;5.40;3.20;;;8.50;56.90;;;;;;6220821;28;20099;-78
2022/12/19 06:36:27;;;;;;;12.63;3.67;;;8.50;56.90;;;;;;6224948;28;20037;-76
2022/12/19 06:39:28;;;;;;;5.85;2.83;;;8.60;57.00;;;;;;6243103;28;20063;-76
2022/12/19 06:42:29;;;;;;;5.28;3.20;;;8.60;57.00;;;;;;6246210;28;20045;-77
2022/12/19 06:45:30;;;;;;;4.78;2.47;;;8.60;56.90;;;;;;6245330;28;20045;-77
2022/12/19 06:48:31;;;;;;;6.50;3.05;;;8.70;57.10;;;;;;6244731;28;20351;-76
2022/12/19 06:51:32;;;;;;;6.28;3.20;;;8.70;56.90;;;;;;6261300;28;20033;-77
2022/12/19 06:54:32;;;;;;;4.95;2.33;;;8.80;56.80;;;;;;6244847;28;20040;-76
2022/12/19 06:57:33;;;;;;;7.43;2.92;;;8.80;56.80;;;;;;6243826;28;20038;-76
2022/12/19 07:00:35;;;;;;;12.40;3.58;;;8.90;56.80;;;;;;6243185;28;20033;-77
2022/12/19 07:03:39;;;;;;;4.03;2.13;;;9.00;56.60;;;;;;6243291;28;20057;-78
2022/12/19 07:06:40;;;;;;;5.45;2.50;;;9.10;56.60;;;;;;6239616;28;20132;-77
2022/12/19 07:09:41;;;;;;;8.15;2.97;;;9.20;56.60;;;;;;6243154;28;20037;-77
2022/12/19 07:12:42;;;;;;;4.78;1.95;;;9.30;56.40;;;;;;6236150;28;20193;-77
2022/12/19 07:15:43;;;;;;;8.55;2.92;;;9.40;57.00;;;;;;6234410;28;20053;-77
2022/12/19 07:18:43;;;;;;;7.10;2.45;;;9.50;56.80;;;;;;6228053;28;20057;-77
2022/12/19 07:21:44;;;;;;;3.28;1.95;;;9.70;56.90;;;;;;6259594;28;20405;-77
2022/12/19 07:24:45;;;;;;;11.40;2.35;;;10.00;57.10;;;;;;6260969;28;20375;-78
2022/12/19 07:27:47;;;;;;;4.18;1.30;;;10.30;56.90;;;;;;6245927;28;20463;-77
2022/12/19 07:30:47;;;;;;;5.88;1.52;;;10.70;56.70;;;;;;6260833;28;20478;-77
2022/12/19 07:33:48;;;;;;;7.38;2.53;;;11.00;56.50;;;;;;6235289;28;20044;-77
2022/12/19 07:36:50;;;;;;;5.13;1.95;;;11.30;55.40;;;;;;6241364;28;20717;-77
2022/12/19 07:39:51;;;;;;;7.63;3.35;;;11.40;54.10;;;;;;6259133;28;20037;-77
2022/12/19 07:42:52;;;;;;;5.78;2.47;;;11.30;53.80;;;;;;6244784;28;20029;-77
2022/12/19 07:45:55;;;;;;;4.32;2.70;;;11.30;53.70;;;;;;6243409;28;20048;-76
2022/12/19 07:48:56;;;;;;;7.35;2.60;;;11.20;53.70;;;;;;6238526;28;20051;-78
2022/12/19 07:51:57;;;;;;;6.40;3.15;;;11.20;53.70;;;;;;6226324;28;20037;-77
2022/12/19 07:54:58;;;;;;;7.13;3.13;;;11.10;53.60;;;;;;6260369;28;20038;-77
2022/12/19 07:57:59;;;;;;;6.90;2.70;;;11.00;53.50;;;;;;6245905;28;20052;-76
2022/12/19 08:01:00;;;;;;;11.55;3.05;;;10.90;53.80;;;;;;6265984;28;20042;-77
2022/12/19 08:04:01;;;;;;;7.90;2.88;;;11.00;53.90;;;;;;6266563;28;20041;-77
2022/12/19 08:07:02;;;;;;;6.43;2.67;;;10.90;53.70;;;;;;6248965;28;20041;-77
2022/12/19 08:10:03;;;;;;;5.45;2.80;;;11.00;53.80;;;;;;6250006;28;20156;-78
2022/12/19 08:13:04;;;;;;;4.97;2.33;;;11.00;54.00;;;;;;6249200;28;20042;-76
2022/12/19 08:16:05;;;;;;;8.50;2.78;;;11.00;54.10;;;;;;6251106;28;20060;-77
2022/12/19 08:19:06;;;;;;;6.32;2.78;;;11.10;54.20;;;;;;6263824;28;20038;-77
2022/12/19 08:22:07;;;;;;;7.18;2.92;;;11.10;54.00;;;;;;6248818;28;20061;-77
2022/12/19 08:25:08;;;;;;;5.07;2.33;;;11.20;53.90;;;;;;6248645;28;20382;-76
2022/12/19 08:28:09;;;;;;;4.63;2.10;;;11.30;54.00;;;;;;6248577;28;20065;-77
2022/12/19 08:31:13;;;;;;;7.68;3.13;;;11.40;53.90;;;;;;6247377;28;20766;-78
2022/12/19 08:34:14;;;;;;;6.20;1.77;;;11.50;53.70;;;;;;6248578;28;20098;-77
2022/12/19 08:37:15;;;;;;;8.65;2.38;;;11.60;53.80;;;;;;6262864;28;20344;-76
2022/12/19 08:40:16;;;;;;;6.90;2.53;;;11.50;53.60;;;;;;6262634;28;20105;-77
2022/12/19 08:43:17;;;;;;;6.00;1.95;;;11.80;53.60;;;;;;6247356;28;20056;-77
2022/12/19 08:46:19;;;;;;;5.80;2.50;;;11.90;53.60;;;;;;6262485;28;20061;-78
2022/12/19 08:49:21;;;;;;;7.38;2.50;;;12.00;54.10;;;;;;6262543;28;20029;-77
2022/12/19 08:52:21;;;;;;;15.02;5.97;;;12.10;53.20;;;;;;6248399;28;20363;-79
2022/12/19 08:55:22;;;;;;;4.13;2.60;;;12.10;52.90;;;;;;6234544;28;20033;-78
2022/12/19 08:58:24;;;;;;;6.82;3.28;;;12.10;52.40;;;;;;6253903;28;20426;-78
2022/12/19 09:01:25;;;;;;;5.95;2.53;;;12.10;52.30;;;;;;6264650;28;20040;-78
2022/12/19 09:04:27;;;;;;;6.78;3.05;;;12.10;52.20;;;;;;6265116;28;20056;-77
2022/12/19 09:07:28;;;;;;;7.97;3.03;;;12.10;52.10;;;;;;6245858;28;20095;-78
2022/12/19 09:10:30;;;;;;;4.88;2.60;;;12.00;51.80;;;;;;6256302;28;20425;-78
2022/12/19 09:13:32;;;;;;;10.23;3.42;;;12.00;51.70;;;;;;6249182;28;20052;-78
2022/12/19 09:16:32;;;;;;;11.45;2.92;;;12.10;51.90;;;;;;6223268;28;20129;-77
2022/12/19 09:19:33;;;;;;;4.60;2.28;;;12.10;51.80;;;;;;6223990;28;20033;-76
2022/12/19 09:22:34;;;;;;;9.27;3.28;;;12.10;51.70;;;;;;6225004;28;20077;-78
2022/12/19 09:25:37;;;;;;;7.38;3.25;;;12.10;51.50;;;;;;6241415;28;20041;-79
2022/12/19 09:28:40;;;;;;;8.20;3.78;;;12.10;51.40;;;;;;6267454;28;20096;-78
2022/12/19 09:31:41;;;;;;;7.20;2.90;;;12.20;51.40;;;;;;6259318;28;20044;-78
2022/12/19 09:34:42;;;;;;;11.80;4.03;;;12.20;51.40;;;;;;6260284;28;20052;-78
2022/12/19 09:37:43;;;;;;;10.23;4.10;;;12.20;51.50;;;;;;6256293;28;20041;-76
2022/12/19 09:40:56;;;;;;;8.88;3.20;;;12.20;51.30;;;;;;6262526;28;20068;-77
2022/12/19 09:44:35;;;;;;;6.65;2.53;;;12.20;51.30;;;;;;6255172;28;20033;-78
2022/12/19 09:47:41;;;;;;;7.10;3.10;;;12.30;51.40;;;;;;6192295;28;20161;-78
2022/12/19 09:51:10;;;;;;;19.83;6.43;;;12.30;51.20;;;;;;6138453;28;20048;-78
2022/12/19 09:54:17;;;;;;;13.88;5.72;;;12.40;51.20;;;;;;6160887;28;20687;-78
2022/12/19 09:57:56;;;;;;;13.90;5.88;;;12.50;51.10;;;;;;6152936;28;20094;-78
2022/12/19 10:01:01;;;;;;;16.35;5.32;;;12.60;51.20;;;;;;6077612;29;20069;-78
2022/12/19 10:04:04;;;;;;;10.38;4.45;;;12.70;51.00;;;;;;6095194;29;20040;-77
2022/12/19 10:07:07;;;;;;;5.65;2.58;;;12.80;51.00;;;;;;6079172;29;20040;-77
2022/12/19 10:10:20;;;;;;;9.35;4.18;;;12.90;51.00;;;;;;6080069;29;20578;-78
2022/12/19 10:13:24;;;;;;;13.70;3.67;;;13.00;51.00;;;;;;6095156;29;20148;-78
2022/12/19 10:16:28;;;;;;;4.15;2.28;;;13.10;50.90;;;;;;6096488;29;20485;-77
2022/12/19 10:19:31;;;;;;;12.88;2.67;;;13.30;50.70;;;;;;6084819;29;20043;-78
2022/12/19 10:22:50;;;;;;;2.67;1.55;;;13.30;50.60;;;;;;6124078;28;20038;-78
2022/12/19 10:25:58;;;;;;;;;;;13.50;50.90;;;;;;6150067;28;20704;-77
2022/12/19 10:29:23;;;;;;;8.90;3.63;;;13.80;50.80;;;;;;6148874;28;19922;-77
2022/12/19 10:32:42;;;;;;;8.85;1.10;;;14.10;50.50;;;;;;6151949;28;20439;-78
2022/12/19 10:35:48;;;;;;;3.25;2.03;;;14.40;49.90;;;;;;6207917;28;20414;-78
2022/12/19 10:39:47;;;;;;;10.68;2.67;;;14.60;49.80;;;;;;6229161;28;20029;-78
2022/12/19 10:42:54;;;;;;;12.32;5.72;;;14.80;49.40;;;;;;6175342;28;20081;-78
2022/12/19 10:45:59;;;;;;;8.05;3.55;;;15.00;48.50;;;;;;6193365;28;20039;-78
2022/12/19 10:49:05;;;;;;;13.93;5.05;;;15.10;48.60;;;;;;6167025;28;20043;-78
2022/12/19 10:52:07;;;;;;;7.72;3.05;;;15.30;48.90;;;;;;6153400;28;20065;-78
2022/12/19 10:55:31;;;;;;;9.35;4.10;;;15.50;48.70;;;;;;6170853;28;20460;-78
2022/12/19 10:58:35;;;;;;;3.47;1.95;;;15.70;48.30;;;;;;6158606;28;20049;-77
2022/12/19 11:01:38;;;;;;;10.80;3.05;;;15.70;47.80;;;;;;6167729;28;20965;-78
2022/12/19 11:04:40;;;;;;;6.15;2.95;;;15.90;47.90;;;;;;6184178;28;20118;-78
2022/12/19 11:07:40;;;;;;;4.60;2.30;;;16.10;47.70;;;;;;6159229;28;20039;-77
2022/12/19 11:11:03;;;;;;;2.42;1.25;;;16.30;47.30;;;;;;6177008;28;20112;-78
2022/12/19 11:14:20;;;;;;;14.55;2.78;;;16.70;46.90;;;;;;6180985;28;20031;-79
2022/12/19 11:17:30;;;;;;;20.95;5.18;;;17.20;46.20;;;;;;6166982;28;20102;-79
2022/12/19 11:20:31;;;;;;;3.13;1.70;;;17.80;45.40;;;;;;6233461;28;20034;-79
2022/12/19 11:23:33;;;;;;;3.10;0.90;;;18.20;44.20;;;;;;6215358;28;20042;-79
2022/12/19 11:26:51;;;;;;;2.22;1.25;;;18.60;43.50;;;;;;6234577;28;20677;-78
2022/12/19 11:29:52;;;;;;;0.82;0.40;;;19.00;42.90;;;;;;6258122;28;20124;-79
2022/12/19 11:33:17;;;;;;;2.15;0.50;;;19.20;41.90;;;;;;6243943;28;20036;-80
2022/12/19 11:36:31;;;;;;;3.05;0.60;;;19.50;41.70;;;;;;6239587;28;20042;-78
2022/12/19 11:40:00;;;;;;;0.40;0.40;;;19.70;41.00;;;;;;6259692;28;20133;-78
2022/12/19 11:43:13;;;;;;;5.80;2.72;;;19.90;40.60;;;;;;6256384;28;20041;-79
2022/12/19 11:46:30;;;;;;;0.73;0.55;;;20.00;40.40;;;;;;6222911;28;20048;-78
2022/12/19 11:49:39;;;;;;;0.47;0.25;;;20.10;40.30;;;;;;6238643;28;20095;-78
2022/12/19 11:53:22;;;;;;;0.45;0.40;;;20.20;40.20;;;;;;6247791;28;20141;-78
2022/12/19 11:56:26;;;;;;;0.30;0.30;;;20.30;39.20;;;;;;6239666;28;20029;-78
2022/12/19 11:59:36;;;;;;;2.45;0.63;;;20.30;39.60;;;;;;6262845;28;20057;-77
2022/12/19 12:02:56;;;;;;;1.92;0.80;;;20.30;39.40;;;;;;6268455;28;20561;-79
2022/12/19 12:05:57;;;;;;;0.40;0.40;;;20.40;39.70;;;;;;6244533;28;20029;-78
2022/12/19 12:09:24;;;;;;;0.60;0.32;;;20.40;39.30;;;;;;6244416;28;20099;-78
2022/12/19 12:12:57;;;;;;;0.55;0.30;;;20.40;38.60;;;;;;6164390;28;20050;-80
2022/12/19 12:16:10;;;;;;;1.45;0.63;;;20.50;38.70;;;;;;6159231;28;20043;-78
2022/12/19 12:19:11;;;;;;;0.70;0.35;;;20.50;38.30;;;;;;6162344;28;20074;-78
2022/12/19 12:22:49;;;;;;;1.52;0.75;;;20.50;38.20;;;;;;6149035;28;20039;-79
2022/12/19 12:26:08;;;;;;;9.13;0.80;;;20.50;38.60;;;;;;6162985;28;20049;-78
2022/12/19 12:29:35;;;;;;;2.88;0.40;;;20.60;37.90;;;;;;6147167;28;20098;-78
2022/12/19 12:32:47;;;;;;;0.40;0.40;;;20.60;37.50;;;;;;6159267;28;20039;-78
2022/12/19 12:35:56;;;;;;;1.23;0.55;;;20.60;37.50;;;;;;6141187;28;20074;-79
2022/12/19 12:39:19;;;;;;;0.50;0.47;;;20.70;37.50;;;;;;6141100;28;20041;-79
2022/12/19 12:42:42;;;;;;;1.27;0.50;;;20.70;37.30;;;;;;6163554;28;20110;-78
2022/12/19 12:45:44;;;;;;;6.80;0.63;;;20.70;36.40;;;;;;6136502;28;20042;-78
2022/12/19 12:48:58;;;;;;;0.98;0.43;;;20.70;36.50;;;;;;6183844;28;20412;-79
2022/12/19 12:52:01;;;;;;;1.02;0.45;;;20.70;36.50;;;;;;6237456;28;20061;-78
2022/12/19 12:55:13;;;;;;;0.40;0.22;;;20.70;36.20;;;;;;6221004;28;20584;-78
2022/12/19 12:58:41;;;;;;;1.92;0.50;;;20.70;36.20;;;;;;6219070;28;20052;-81
2022/12/19 13:01:42;;;;;;;1.15;0.40;;;20.70;36.30;;;;;;6259657;28;20037;-79
2022/12/19 13:04:59;;;;;;;0.40;0.40;;;20.70;36.10;;;;;;6241168;28;20053;-78
2022/12/19 13:08:00;;;;;;;2.03;0.60;;;20.70;36.50;;;;;;6240140;28;20044;-78
2022/12/19 13:14:38;;;;;;;0.68;0.35;;;20.70;36.60;;;;;;6243092;28;20041;-78
2022/12/19 13:17:41;;;;;;;0.50;0.40;;;20.60;36.30;;;;;;6243106;28;20116;-78
2022/12/19 13:20:47;;;;;;;0.30;0.30;;;20.60;36.30;;;;;;6258640;28;20037;-79
2022/12/19 13:23:47;;;;;;;2.42;0.60;;;20.60;36.40;;;;;;6262282;28;20099;-79
2022/12/19 13:26:51;;;;;;;2.28;0.50;;;20.60;36.50;;;;;;6246294;28;20470;-78
2022/12/19 13:30:11;;;;;;;2.13;0.70;;;20.70;36.50;;;;;;6284734;28;20446;-78
2022/12/19 13:37:37;;;;;;;5.55;0.40;;;20.60;37.10;;;;;;6217728;28;20459;-78
2022/12/19 13:40:49;;;;;;;1.95;0.50;;;20.60;36.80;;;;;;6236100;28;20137;-79
2022/12/19 13:43:54;;;;;;;2.50;0.30;;;20.50;36.50;;;;;;6221372;28;20033;-79
2022/12/19 13:46:55;;;;;;;2.15;0.50;;;20.60;36.90;;;;;;6220797;28;20042;-79
2022/12/19 13:49:56;;;;;;;0.93;0.43;;;20.50;37.00;;;;;;6237495;28;20172;-78
2022/12/19 13:52:57;;;;;;;1.63;0.70;;;20.50;36.90;;;;;;6220439;28;20759;-79
2022/12/19 13:56:01;;;;;;;2.83;0.30;;;20.40;37.20;;;;;;6218763;28;20064;-79
2022/12/19 13:59:05;;;;;;;0.20;0.20;;;20.40;37.10;;;;;;6222135;28;20030;-80
2022/12/19 14:02:33;;;;;;;0.20;0.20;;;20.40;37.10;;;;;;6218755;28;20149;-78
2022/12/19 14:05:38;;;;;;;1.77;0.47;;;20.30;36.90;;;;;;6213480;28;20430;-80
2022/12/19 14:08:39;;;;;;;2.22;0.90;;;20.30;36.90;;;;;;6216561;28;20434;-79
2022/12/19 14:11:43;;;;;;;4.85;0.47;;;20.30;37.30;;;;;;6217997;28;20033;-78
2022/12/19 14:18:25;;;;;;;0.88;0.20;;;20.20;37.10;;;;;;6220195;28;20053;-78
2022/12/19 14:21:29;;;;;;;1.90;0.40;;;20.20;37.20;;;;;;6218066;28;20038;-78
2022/12/19 14:24:30;;;;;;;0.57;0.40;;;20.10;37.50;;;;;;6220952;28;20129;-78
2022/12/19 14:27:42;;;;;;;0.93;0.35;;;20.10;37.80;;;;;;6219724;28;20042;-79
2022/12/19 14:30:47;;;;;;;3.63;0.60;;;20.00;37.80;;;;;;6221156;28;20537;-78
2022/12/19 14:33:51;;;;;;;2.50;0.40;;;20.00;37.90;;;;;;6216408;28;20049;-78
2022/12/19 14:36:55;;;;;;;0.63;0.40;;;20.00;38.10;;;;;;6206092;28;20078;-79
2022/12/19 14:40:13;;;;;;;1.00;0.40;;;19.90;38.00;;;;;;6196590;28;20536;-79
2022/12/19 14:43:39;;;;;;;3.15;0.70;;;19.90;37.90;;;;;;6197597;28;20034;-78
2022/12/19 14:46:40;;;;;;;1.05;0.40;;;19.90;38.20;;;;;;6235568;28;20052;-79
2022/12/19 14:49:41;;;;;;;1.10;0.50;;;19.80;38.30;;;;;;6251079;28;20037;-78
2022/12/19 14:52:45;;;;;;;0.35;0.35;;;19.70;38.40;;;;;;6242789;28;20136;-78
2022/12/19 14:55:47;;;;;;;1.45;0.52;;;19.70;38.60;;;;;;6259541;28;20115;-78
2022/12/19 14:58:55;;;;;;;1.63;0.45;;;19.60;38.60;;;;;;6242847;28;20037;-78
2022/12/19 15:02:07;;;;;;;0.82;0.20;;;19.60;38.90;;;;;;6242566;28;20037;-78
2022/12/19 15:05:13;;;;;;;0.75;0.40;;;19.50;38.90;;;;;;6259200;28;20036;-78
2022/12/19 15:08:27;;;;;;;1.90;0.47;;;19.50;39.00;;;;;;6243443;28;20041;-78
2022/12/19 15:15:03;;;;;;;2.97;0.73;;;19.40;39.30;;;;;;6255299;28;20071;-78
2022/12/19 15:18:22;;;;;;;0.93;0.60;;;19.30;39.50;;;;;;6243989;28;20096;-78
2022/12/19 15:21:23;;;;;;;1.17;0.57;;;19.30;39.60;;;;;;6241731;28;20457;-78
2022/12/19 15:24:24;;;;;;;0.43;0.30;;;19.20;39.70;;;;;;6258536;28;20037;-78
2022/12/19 15:27:25;;;;;;;1.92;0.35;;;19.20;39.70;;;;;;6241734;28;20421;-79
2022/12/19 15:30:30;;;;;;;0.28;0.20;;;19.10;39.80;;;;;;6243936;28;20090;-79
2022/12/19 15:33:31;;;;;;;4.55;0.57;;;19.10;39.90;;;;;;6254861;28;20029;-78
2022/12/19 15:36:32;;;;;;;0.40;0.40;;;19.10;39.90;;;;;;6260783;28;20048;-78
2022/12/19 15:39:33;;;;;;;0.50;0.50;;;19.10;40.00;;;;;;6260364;28;20115;-78
2022/12/19 15:42:34;;;;;;;1.33;0.68;;;19.00;40.10;;;;;;6244544;28;20045;-78
2022/12/19 15:45:35;;;;;;;1.80;0.80;;;19.00;40.20;;;;;;6260539;28;20124;-78
2022/12/19 15:48:40;;;;;;;2.88;0.40;;;18.90;40.30;;;;;;6255217;28;20048;-78
2022/12/19 15:51:41;;;;;;;2.47;0.90;;;18.90;40.50;;;;;;6244401;28;20088;-77
2022/12/19 15:54:43;;;;;;;2.10;1.02;;;18.70;40.60;;;;;;6243125;28;20104;-79
2022/12/19 15:57:55;;;;;;;4.20;0.93;;;18.70;40.90;;;;;;6242093;28;20371;-78
2022/12/19 16:01:00;;;;;;;4.15;0.40;;;18.60;41.00;;;;;;6216170;28;20069;-79
2022/12/19 16:04:02;;;;;;;0.45;0.40;;;18.50;41.10;;;;;;6219122;28;20044;-79
2022/12/19 16:07:26;;;;;;;2.47;0.40;;;18.50;41.20;;;;;;6218274;28;20042;-80
2022/12/19 16:10:27;;;;;;;3.30;1.35;;;18.50;41.90;;;;;;6216917;28;20058;-79
2022/12/19 16:17:51;;;;;;;1.35;0.50;;;18.40;41.30;;;;;;6223204;28;20041;-79
2022/12/19 16:20:52;;;;;;;1.65;0.77;;;18.40;41.40;;;;;;6224757;28;20456;-79
2022/12/19 16:23:53;;;;;;;1.75;0.40;;;18.40;41.60;;;;;;6235462;28;20049;-79
2022/12/19 16:26:57;;;;;;;0.40;0.38;;;18.40;41.60;;;;;;6244822;28;20046;-78
2022/12/19 16:30:22;;;;;;;0.47;0.40;;;18.40;41.50;;;;;;6248578;28;20033;-78